createdAt,value
2022-12-11T00:03:48.369Z,19.67
2022-12-11T00:08:52.948Z,20.33
2022-12-11T00:13:57.116Z,19.98
2022-12-11T00:18:59.905Z,18.50
2022-12-11T00:24:02.655Z,20.35
2022-12-11T00:29:08.219Z,16.58
2022-12-11T00:34:12.039Z,18.70
2022-12-11T00:39:14.839Z,19.67
2022-12-11T00:44:18.961Z,18.23
2022-12-11T00:49:21.803Z,20.42
2022-12-11T00:54:24.622Z,21.52
2022-12-11T00:59:29.156Z,19.67
2022-12-11T01:04:31.975Z,19.05
2022-12-11T01:09:52.028Z,19.42
2022-12-11T01:14:56.095Z,20.60
2022-12-11T01:19:58.831Z,17.63
2022-12-11T01:25:01.594Z,19.30
2022-12-11T01:30:07.429Z,16.95
2022-12-11T01:35:12.350Z,26.33
2022-12-11T01:40:16.631Z,24.42
2022-12-11T01:45:40.008Z,21.40
2022-12-11T01:50:48.057Z,20.05
2022-12-11T01:55:54.743Z,19.13
2022-12-11T02:01:00.098Z,16.65
2022-12-11T02:06:03.444Z,19.02
2022-12-11T02:11:12.555Z,18.85
2022-12-11T02:16:25.378Z,22.08
2022-12-11T02:21:36.089Z,20.15
2022-12-11T02:26:58.476Z,22.13
2022-12-11T02:32:08.904Z,23.15
2022-12-11T02:37:17.471Z,20.33
2022-12-11T02:42:21.595Z,19.40
2022-12-11T02:47:29.271Z,22.73
2022-12-11T02:52:33.601Z,19.48
2022-12-11T02:57:41.148Z,17.55
2022-12-11T03:02:46.556Z,19.30
2022-12-11T03:07:49.610Z,20.38
2022-12-11T03:12:56.481Z,20.80
2022-12-11T03:18:07.590Z,24.20
2022-12-11T03:23:20.118Z,24.00
2022-12-11T03:28:30.334Z,24.23
2022-12-11T03:33:38.691Z,20.38
2022-12-11T03:43:46.931Z,24.45
2022-12-11T03:48:52.852Z,20.77
2022-12-11T03:53:56.996Z,23.13
2022-12-11T03:58:59.952Z,19.63
2022-12-11T04:04:04.610Z,24.38
2022-12-11T04:09:10.343Z,25.35
2022-12-11T04:14:33.400Z,20.42
2022-12-11T04:19:55.263Z,22.85
2022-12-11T04:24:58.048Z,23.50
2022-12-11T04:30:01.876Z,22.05
2022-12-11T04:35:11.155Z,23.45
2022-12-11T04:40:19.783Z,19.38
2022-12-11T04:45:22.631Z,19.58
2022-12-11T04:50:27.067Z,18.85
2022-12-11T04:55:32.784Z,22.58
2022-12-11T05:00:35.638Z,27.23
2022-12-11T05:05:39.975Z,19.95
2022-12-11T05:10:48.540Z,21.00
2022-12-11T05:15:52.858Z,24.40
2022-12-11T05:21:02.239Z,21.05
2022-12-11T05:26:08.179Z,19.80
2022-12-11T05:31:17.485Z,19.77
2022-12-11T05:36:24.870Z,18.70
2022-12-11T05:41:29.671Z,20.40
2022-12-11T05:46:32.623Z,20.20
2022-12-11T05:51:36.789Z,17.30
2022-12-11T05:56:39.602Z,18.65
2022-12-11T06:01:46.882Z,18.67
2022-12-11T06:06:51.351Z,19.45
2022-12-11T06:11:54.138Z,21.17
2022-12-11T06:16:56.912Z,20.08
2022-12-11T06:22:01.020Z,16.85
2022-12-11T06:27:03.817Z,16.80
2022-12-11T06:32:06.940Z,17.88
2022-12-11T06:37:11.772Z,13.32
2022-12-11T06:42:41.523Z,15.52
2022-12-11T06:47:44.393Z,18.58
2022-12-11T06:52:48.705Z,19.38
2022-12-11T06:57:51.530Z,16.35
2022-12-11T07:02:54.574Z,18.65
2022-12-11T07:07:59.155Z,22.02
2022-12-11T07:13:02.230Z,23.45
2022-12-11T07:18:08.122Z,22.15
2022-12-11T07:23:12.545Z,19.52
2022-12-11T07:28:16.896Z,24.13
2022-12-11T07:33:19.888Z,20.27
2022-12-11T07:38:24.857Z,19.52
2022-12-11T07:43:27.626Z,20.63
2022-12-11T07:48:34.025Z,18.77
2022-12-11T07:53:39.820Z,22.70
2022-12-11T07:58:42.727Z,22.40
2022-12-11T08:03:46.451Z,21.10
2022-12-11T08:08:50.650Z,18.38
2022-12-11T08:13:53.828Z,18.33
2022-12-11T08:18:57.576Z,17.50
2022-12-11T08:24:11.159Z,20.88
2022-12-11T08:29:14.156Z,24.13
2022-12-11T08:34:17.940Z,16.90
2022-12-11T08:39:22.517Z,21.40
2022-12-11T08:44:27.083Z,21.92
2022-12-11T08:49:34.181Z,22.23
2022-12-11T08:54:40.231Z,16.67
2022-12-11T08:59:43.093Z,20.08
2022-12-11T09:04:45.882Z,18.15
2022-12-11T09:09:50.077Z,19.00
2022-12-11T09:14:53.127Z,19.42
2022-12-11T09:19:55.990Z,20.30
2022-12-11T09:25:00.210Z,20.80
2022-12-11T09:30:03.005Z,19.10
2022-12-11T09:35:06.724Z,15.82
2022-12-11T09:40:13.306Z,16.08
2022-12-11T09:45:17.745Z,19.63
2022-12-11T09:50:24.076Z,21.13
2022-12-11T09:55:38.276Z,18.17
2022-12-11T10:00:46.911Z,22.00
2022-12-11T10:06:01.152Z,19.38
2022-12-11T10:11:23.906Z,14.82
2022-12-11T10:16:36.806Z,16.70
2022-12-11T10:21:42.424Z,17.23
2022-12-11T10:26:47.759Z,16.55
2022-12-11T10:31:54.874Z,16.95
2022-12-11T10:37:00.545Z,17.35
2022-12-11T10:42:17.434Z,16.00
2022-12-11T10:47:20.207Z,15.20
2022-12-11T10:52:25.170Z,16.92
2022-12-11T10:57:32.128Z,15.25
2022-12-11T11:02:37.583Z,17.73
2022-12-11T11:07:40.652Z,17.30
2022-12-11T11:12:47.658Z,15.93
2022-12-11T11:17:55.800Z,23.48
2022-12-11T11:23:02.800Z,18.83
2022-12-11T11:28:08.812Z,14.95
2022-12-11T11:33:15.649Z,18.20
2022-12-11T11:38:24.242Z,16.52
2022-12-11T11:43:35.352Z,16.30
2022-12-11T11:48:46.893Z,16.42
2022-12-11T11:53:51.710Z,16.52
2022-12-11T11:59:08.440Z,24.60
2022-12-11T12:04:12.875Z,22.50
2022-12-11T12:09:29.056Z,18.13
2022-12-11T12:14:54.518Z,17.40
2022-12-11T12:20:05.212Z,18.52
2022-12-11T12:25:28.151Z,16.75
2022-12-11T12:30:45.696Z,15.93
2022-12-11T12:36:18.634Z,17.50
2022-12-11T12:41:45.777Z,17.88
2022-12-11T12:47:04.792Z,16.40
2022-12-11T12:52:13.161Z,16.33
2022-12-11T12:57:18.415Z,19.95
2022-12-11T13:02:23.882Z,14.63
2022-12-11T13:07:30.706Z,18.90
2022-12-11T13:12:47.847Z,20.40
2022-12-11T13:17:53.055Z,17.05
2022-12-11T13:23:10.219Z,19.33
2022-12-11T13:28:24.911Z,17.50
2022-12-11T13:33:31.133Z,18.02
2022-12-11T13:38:37.400Z,22.20
2022-12-11T13:43:42.892Z,17.63
2022-12-11T13:48:49.876Z,17.95
2022-12-11T13:54:04.926Z,16.33
2022-12-11T13:59:22.141Z,21.58
2022-12-11T14:04:39.143Z,16.52
2022-12-11T14:09:45.418Z,17.58
2022-12-11T14:14:52.867Z,18.33
2022-12-11T14:20:02.217Z,22.80
2022-12-11T14:25:21.685Z,15.88
2022-12-11T14:30:27.251Z,17.77
2022-12-11T14:35:38.875Z,18.45
2022-12-11T14:40:48.022Z,26.13
2022-12-11T14:45:55.777Z,23.08
2022-12-11T14:51:06.112Z,23.33
2022-12-11T14:56:16.973Z,24.80
2022-12-11T15:01:25.031Z,21.38
2022-12-11T15:06:30.728Z,21.33
2022-12-11T15:11:33.867Z,20.45
2022-12-11T15:16:41.672Z,25.05
2022-12-11T15:21:46.053Z,19.10
2022-12-11T15:26:49.675Z,23.40
2022-12-11T15:32:01.454Z,20.17
2022-12-11T15:37:05.578Z,20.23
2022-12-11T15:42:08.352Z,21.38
2022-12-11T15:47:15.379Z,21.00
2022-12-11T15:52:19.485Z,23.77
2022-12-11T15:57:24.969Z,23.67
2022-12-11T16:02:28.050Z,22.35
2022-12-11T16:07:33.286Z,22.85
2022-12-11T16:12:36.062Z,20.80
2022-12-11T16:17:38.900Z,19.17
2022-12-11T16:22:43.111Z,18.65
2022-12-11T16:27:46.260Z,23.13
2022-12-11T16:32:49.120Z,23.63
2022-12-11T16:37:54.738Z,27.05
2022-12-11T16:42:58.526Z,19.83
2022-12-11T16:48:03.916Z,21.40
2022-12-11T16:53:08.018Z,21.25
2022-12-11T16:58:15.874Z,23.17
2022-12-11T17:03:19.419Z,22.77
2022-12-11T17:08:24.278Z,28.92
2022-12-11T17:13:29.566Z,20.67
2022-12-11T17:18:37.230Z,27.90
2022-12-11T17:23:41.579Z,23.42
2022-12-11T17:28:45.947Z,23.45
2022-12-11T17:33:49.626Z,26.02
2022-12-11T17:38:54.920Z,23.13
2022-12-11T17:43:57.763Z,27.67
2022-12-11T17:49:02.774Z,26.33
2022-12-11T17:54:06.978Z,27.65
2022-12-11T17:59:09.822Z,23.42
2022-12-11T18:04:12.797Z,29.58
2022-12-11T18:09:17.031Z,28.67
2022-12-11T18:14:19.824Z,26.17
2022-12-11T18:19:23.276Z,23.88
2022-12-11T18:24:31.699Z,25.58
2022-12-11T18:34:38.445Z,26.33
2022-12-11T18:39:43.028Z,26.50
2022-12-11T18:44:46.458Z,26.38
2022-12-11T18:49:49.337Z,28.02
2022-12-11T18:54:53.722Z,26.73
2022-12-11T18:59:56.574Z,23.65
2022-12-11T19:04:59.725Z,21.70
2022-12-11T19:10:04.059Z,28.02
2022-12-11T19:15:07.895Z,25.63
2022-12-11T19:20:40.391Z,25.35
2022-12-11T19:25:43.244Z,29.13
2022-12-11T19:30:47.455Z,33.38
2022-12-11T19:35:50.375Z,34.65
2022-12-11T19:40:54.797Z,29.85
2022-12-11T19:45:57.635Z,33.33
2022-12-11T19:51:05.357Z,34.67
2022-12-11T19:56:29.362Z,35.47
2022-12-11T20:07:30.650Z,34.95
2022-12-11T20:12:45.483Z,37.53
2022-12-11T20:17:57.918Z,36.10
2022-12-11T20:23:02.935Z,33.50
2022-12-11T20:34:47.846Z,37.88
2022-12-11T20:39:54.072Z,28.98
2022-12-11T20:44:59.861Z,33.83
2022-12-11T20:50:24.003Z,30.63
2022-12-11T20:55:26.970Z,30.20
2022-12-11T21:00:41.893Z,34.97
2022-12-11T21:05:48.029Z,37.42
2022-12-11T21:10:53.673Z,31.52
2022-12-11T21:16:06.370Z,33.90
2022-12-11T21:21:21.133Z,32.50
2022-12-11T21:26:24.182Z,29.73
2022-12-11T21:31:30.993Z,36.50
2022-12-11T21:36:34.017Z,35.13
2022-12-11T21:41:52.997Z,31.65
2022-12-11T21:52:27.341Z,36.22
2022-12-11T21:57:34.300Z,36.53
2022-12-11T22:02:41.344Z,32.92
2022-12-11T22:07:44.438Z,29.65
2022-12-11T22:12:47.257Z,34.55
2022-12-11T22:17:52.837Z,34.20
2022-12-11T22:22:58.828Z,31.40
2022-12-11T22:28:02.187Z,32.42
2022-12-11T22:33:06.511Z,38.90
2022-12-11T22:38:09.349Z,34.17
2022-12-11T22:43:13.058Z,33.17
2022-12-11T22:48:17.301Z,35.58
2022-12-11T22:53:20.309Z,32.55
2022-12-11T22:58:23.111Z,35.63
2022-12-11T23:03:27.417Z,36.53
2022-12-11T23:08:30.337Z,34.15
2022-12-11T23:13:33.173Z,33.72
2022-12-11T23:18:37.378Z,31.67
2022-12-11T23:23:40.821Z,31.50
2022-12-11T23:28:43.668Z,33.38
2022-12-11T23:33:47.941Z,37.90
2022-12-11T23:38:54.561Z,34.40
2022-12-11T23:43:57.964Z,39.08
2022-12-11T23:49:02.063Z,42.38
2022-12-11T23:54:04.908Z,38.47
2022-12-11T23:59:07.710Z,34.13
